createdAt,value
2019-03-12T00:00:28.132Z,100896.00
2019-03-12T00:03:01.236Z,100896.28
2019-03-12T00:05:31.596Z,100901.23
2019-03-12T00:08:01.994Z,100912.00
2019-03-12T00:10:32.480Z,100905.73
2019-03-12T00:13:02.860Z,100913.37
2019-03-12T00:15:33.196Z,100911.80
2019-03-12T00:18:03.529Z,100917.18
2019-03-12T00:20:33.987Z,100915.47
2019-03-12T00:23:04.322Z,100924.17
2019-03-12T00:25:34.683Z,100930.26
2019-03-12T00:28:05.023Z,100927.44
2019-03-12T00:30:35.690Z,100921.52
2019-03-12T00:33:06.034Z,100930.39
2019-03-12T00:35:36.390Z,100934.48
2019-03-12T00:38:07.046Z,100931.38
2019-03-12T00:40:37.397Z,100938.02
2019-03-12T00:43:07.762Z,100943.21
2019-03-12T00:45:38.117Z,100948.05
2019-03-12T00:48:08.482Z,100956.44
2019-03-12T00:50:38.840Z,100963.48
2019-03-12T00:53:09.208Z,100962.84
2019-03-12T00:55:40.450Z,100965.20
2019-03-12T00:58:10.810Z,100971.01
2019-03-12T01:00:41.178Z,100972.59
2019-03-12T01:03:12.424Z,100977.48
2019-03-12T01:05:42.770Z,100987.10
2019-03-12T01:08:13.059Z,100989.61
2019-03-12T01:10:43.338Z,100987.89
2019-03-12T01:13:17.672Z,100993.33
2019-03-12T01:15:48.054Z,101004.12
2019-03-12T01:18:18.318Z,101005.98
2019-03-12T01:20:48.697Z,101012.38
2019-03-12T01:23:18.975Z,101010.41
2019-03-12T01:25:49.267Z,101001.12
2019-03-12T01:28:19.595Z,101012.51
2019-03-12T01:30:49.956Z,101010.78
2019-03-12T01:33:20.246Z,101016.73
2019-03-12T01:35:50.601Z,101020.72
2019-03-12T01:38:20.873Z,101029.38
2019-03-12T01:40:52.135Z,101028.31
2019-03-12T01:43:22.468Z,101038.95
2019-03-12T01:45:52.860Z,101043.80
2019-03-12T01:48:23.244Z,101048.73
2019-03-12T01:50:53.606Z,101046.87
2019-03-12T01:53:23.884Z,101053.95
2019-03-12T01:55:54.202Z,101052.91
2019-03-12T01:58:24.557Z,101057.02
2019-03-12T02:00:54.897Z,101059.64
2019-03-12T02:03:25.336Z,101062.42
2019-03-12T02:05:55.680Z,101065.38
2019-03-12T02:08:25.962Z,101065.67
2019-03-12T02:10:56.318Z,101063.66
2019-03-12T02:13:26.677Z,101062.03
2019-03-12T02:15:57.037Z,101069.98
2019-03-12T02:18:27.392Z,101075.62
2019-03-12T02:20:57.683Z,101081.83
2019-03-12T02:23:29.166Z,101079.62
2019-03-12T02:25:59.662Z,101081.25
2019-03-12T02:28:30.915Z,101087.66
2019-03-12T02:31:01.212Z,101091.96
2019-03-12T02:33:31.661Z,101089.67
2019-03-12T02:36:02.986Z,101091.96
2019-03-12T02:38:33.322Z,101096.08
2019-03-12T02:41:03.682Z,101096.27
2019-03-12T02:43:34.054Z,101102.30
2019-03-12T02:46:06.332Z,101104.30
2019-03-12T02:48:36.701Z,101115.66
2019-03-12T02:51:07.060Z,101117.19
2019-03-12T02:53:37.406Z,101124.17
2019-03-12T02:56:07.698Z,101123.59
2019-03-12T02:58:37.995Z,101124.56
2019-03-12T03:01:08.356Z,101123.38
2019-03-12T03:03:38.644Z,101122.63
2019-03-12T03:06:16.733Z,101131.98
2019-03-12T03:08:47.095Z,101136.85
2019-03-12T03:11:17.414Z,101145.20
2019-03-12T03:13:47.735Z,101150.36
2019-03-12T03:16:18.091Z,101145.39
2019-03-12T03:18:48.360Z,101144.26
2019-03-12T03:21:18.643Z,101153.61
2019-03-12T03:23:49.989Z,101161.77
2019-03-12T03:26:20.285Z,101176.20
2019-03-12T03:28:50.658Z,101177.91
2019-03-12T03:31:21.015Z,101180.78
2019-03-12T03:33:51.317Z,101181.36
2019-03-12T03:36:21.665Z,101185.20
2019-03-12T03:38:52.037Z,101184.25
2019-03-12T03:41:22.319Z,101189.55
2019-03-12T03:43:52.609Z,101184.45
2019-03-12T03:46:22.960Z,101188.07
2019-03-12T03:48:53.237Z,101193.37
2019-03-12T03:51:23.563Z,101198.16
2019-03-12T03:53:53.929Z,101200.13
2019-03-12T03:56:24.227Z,101205.55
2019-03-12T03:58:54.591Z,101203.00
2019-03-12T04:01:24.945Z,101195.92
2019-03-12T04:03:55.295Z,101208.30
2019-03-12T04:06:25.574Z,101199.54
2019-03-12T04:08:55.928Z,101206.47
2019-03-12T04:11:26.235Z,101214.59
2019-03-12T04:13:56.569Z,101216.53
2019-03-12T04:16:26.859Z,101227.16
2019-03-12T04:18:57.684Z,101223.68
2019-03-12T04:21:28.032Z,101224.55
2019-03-12T04:23:58.324Z,101231.81
2019-03-12T04:26:28.687Z,101235.95
2019-03-12T04:28:58.957Z,101230.19
2019-03-12T04:31:29.381Z,101240.55
2019-03-12T04:34:02.991Z,101233.41
2019-03-12T04:36:33.412Z,101241.73
2019-03-12T04:39:05.373Z,101243.68
2019-03-12T04:41:37.324Z,101254.81
2019-03-12T04:44:07.733Z,101257.97
2019-03-12T04:46:38.106Z,101258.08
2019-03-12T04:49:08.445Z,101263.00
2019-03-12T04:51:38.803Z,101273.36
2019-03-12T04:54:09.166Z,101275.90
2019-03-12T04:56:39.527Z,101278.28
2019-03-12T04:59:09.889Z,101281.50
2019-03-12T05:01:40.246Z,101281.86
2019-03-12T05:04:10.633Z,101286.38
2019-03-12T05:06:40.923Z,101293.46
2019-03-12T05:09:11.200Z,101292.52
2019-03-12T05:11:41.581Z,101301.45
2019-03-12T05:14:20.290Z,101292.91
2019-03-12T05:16:51.694Z,101301.02
2019-03-12T05:19:22.902Z,101298.73
2019-03-12T05:21:53.262Z,101310.84
2019-03-12T05:24:23.640Z,101313.69
2019-03-12T05:26:55.001Z,101314.16
2019-03-12T05:29:25.286Z,101314.20
2019-03-12T05:31:55.667Z,101312.55
2019-03-12T05:34:26.035Z,101306.09
2019-03-12T05:36:57.344Z,101314.97
2019-03-12T05:39:27.757Z,101311.41
2019-03-12T05:41:58.172Z,101315.95
2019-03-12T05:44:28.459Z,101318.84
2019-03-12T05:46:58.757Z,101323.05
2019-03-12T05:49:29.190Z,101323.94
2019-03-12T05:51:59.657Z,101326.11
2019-03-12T05:54:29.940Z,101323.27
2019-03-12T05:57:00.293Z,101329.43
2019-03-12T05:59:30.650Z,101322.19
2019-03-12T06:02:02.057Z,101327.95
2019-03-12T06:04:32.436Z,101330.98
2019-03-12T06:07:03.813Z,101339.59
2019-03-12T06:09:34.094Z,101340.26
2019-03-12T06:12:04.425Z,101339.33
2019-03-12T06:14:35.032Z,101347.11
2019-03-12T06:17:05.608Z,101349.23
2019-03-12T06:19:35.971Z,101347.90
2019-03-12T06:22:06.321Z,101347.58
2019-03-12T06:24:36.706Z,101351.67
2019-03-12T06:27:07.124Z,101339.48
2019-03-12T06:29:37.485Z,101345.48
2019-03-12T06:32:12.189Z,101349.39
2019-03-12T06:34:44.254Z,101357.30
2019-03-12T06:37:19.163Z,101353.95
2019-03-12T06:39:54.166Z,101357.36
2019-03-12T06:42:26.138Z,101360.80
2019-03-12T06:44:58.140Z,101367.45
2019-03-12T06:47:39.323Z,101361.87
2019-03-12T06:50:14.363Z,101371.45
2019-03-12T06:52:49.544Z,101366.98
2019-03-12T06:55:27.700Z,101378.09
2019-03-12T06:58:20.432Z,101381.44
2019-03-12T07:00:58.255Z,101376.41
2019-03-12T07:03:36.028Z,101384.14
2019-03-12T07:06:16.790Z,101380.40
2019-03-12T07:08:48.830Z,101384.03
2019-03-12T07:11:26.563Z,101388.50
2019-03-12T07:14:01.269Z,101388.98
2019-03-12T07:16:33.287Z,101389.16
2019-03-12T07:19:11.744Z,101383.63
2019-03-12T07:21:46.517Z,101385.31
2019-03-12T07:24:24.627Z,101386.41
2019-03-12T07:26:56.623Z,101385.40
2019-03-12T07:29:34.573Z,101386.43
2019-03-12T07:32:06.551Z,101394.77
2019-03-12T07:34:38.481Z,101399.66
2019-03-12T07:37:16.222Z,101400.81
2019-03-12T07:39:52.238Z,101404.48
2019-03-12T07:42:33.449Z,101404.23
2019-03-12T07:45:08.516Z,101406.41
2019-03-12T07:47:43.322Z,101403.84
2019-03-12T07:50:24.322Z,101395.20
2019-03-12T07:53:12.969Z,101399.64
2019-03-12T07:55:50.908Z,101398.48
2019-03-12T07:58:35.647Z,101392.59
2019-03-12T08:01:08.817Z,101389.89
2019-03-12T08:03:43.722Z,101380.38
2019-03-12T08:06:15.724Z,101387.27
2019-03-12T08:09:03.229Z,101382.46
2019-03-12T08:11:48.890Z,101390.51
2019-03-12T08:14:35.794Z,101398.74
2019-03-12T08:17:07.772Z,101402.18
2019-03-12T08:19:39.773Z,101410.61
2019-03-12T08:22:14.733Z,101420.56
2019-03-12T08:27:38.481Z,101414.09
2019-03-12T08:30:15.227Z,101414.41
2019-03-12T08:32:50.073Z,101419.20
2019-03-12T08:35:28.425Z,101426.69
2019-03-12T08:38:00.560Z,101424.93
2019-03-12T08:40:35.337Z,101415.94
2019-03-12T08:43:07.338Z,101426.37
2019-03-12T08:45:45.473Z,101433.85
2019-03-12T08:48:19.866Z,101419.18
2019-03-12T08:51:07.091Z,101418.42
2019-03-12T08:53:42.143Z,101420.73
2019-03-12T08:56:19.929Z,101419.52
2019-03-12T08:58:57.984Z,101423.47
2019-03-12T09:01:38.968Z,101421.51
2019-03-12T09:04:13.662Z,101418.81
2019-03-12T09:06:45.667Z,101421.98
2019-03-12T09:09:26.656Z,101415.09
2019-03-12T09:11:58.689Z,101412.66
2019-03-12T09:14:30.623Z,101416.44
2019-03-12T09:17:02.617Z,101411.41
2019-03-12T09:19:40.799Z,101417.88
2019-03-12T09:22:12.862Z,101416.48
2019-03-12T09:25:03.881Z,101412.05
2019-03-12T09:27:35.879Z,101411.81
2019-03-12T09:30:11.171Z,101414.78
2019-03-12T09:32:55.007Z,101416.38
2019-03-12T09:35:44.337Z,101412.53
2019-03-12T09:38:32.627Z,101411.92
2019-03-12T09:41:06.266Z,101409.39
2019-03-12T09:43:48.351Z,101401.00
2019-03-12T09:46:32.579Z,101389.98
2019-03-12T09:49:10.708Z,101384.48
2019-03-12T09:51:52.020Z,101388.46
2019-03-12T09:54:24.064Z,101384.72
2019-03-12T09:57:04.847Z,101383.29
2019-03-12T09:59:49.096Z,101387.04
2019-03-12T10:05:14.847Z,101383.41
2019-03-12T10:07:56.116Z,101379.14
2019-03-12T10:10:30.830Z,101383.36
2019-03-12T10:13:13.433Z,101383.86
2019-03-12T10:16:01.704Z,101384.42
2019-03-12T10:18:34.813Z,101382.12
2019-03-12T10:21:12.930Z,101384.21
2019-03-12T10:23:45.009Z,101375.55
2019-03-12T10:26:27.500Z,101375.31
2019-03-12T10:29:12.266Z,101368.77
2019-03-12T10:31:47.239Z,101374.38
2019-03-12T10:34:29.548Z,101377.44
2019-03-12T10:37:16.459Z,101368.86
2019-03-12T10:40:07.822Z,101372.25
2019-03-12T10:42:54.045Z,101371.81
2019-03-12T10:45:44.183Z,101375.52
2019-03-12T10:48:15.476Z,101371.47
2019-03-12T10:50:45.846Z,101371.56
2019-03-12T10:53:16.186Z,101365.91
2019-03-12T10:55:46.573Z,101364.58
2019-03-12T10:58:16.924Z,101357.86
2019-03-12T11:00:47.212Z,101357.94
2019-03-12T11:03:17.681Z,101358.14
2019-03-12T11:05:48.118Z,101348.94
2019-03-12T11:08:18.498Z,101345.25
2019-03-12T11:10:48.853Z,101342.77
2019-03-12T11:13:19.227Z,101336.62
2019-03-12T11:15:49.767Z,101337.80
2019-03-12T11:18:20.122Z,101332.59
2019-03-12T11:20:50.523Z,101325.61
2019-03-12T11:23:20.812Z,101323.53
2019-03-12T11:25:52.244Z,101318.00
2019-03-12T11:28:22.587Z,101317.39
2019-03-12T11:30:52.947Z,101319.96
2019-03-12T11:33:23.219Z,101313.83
2019-03-12T11:35:53.758Z,101311.11
2019-03-12T11:38:24.478Z,101312.46
2019-03-12T11:40:55.465Z,101309.96
2019-03-12T11:43:25.856Z,101307.66
2019-03-12T11:45:56.207Z,101306.58
2019-03-12T11:48:26.488Z,101296.34
2019-03-12T11:50:56.845Z,101295.30
2019-03-12T11:53:27.205Z,101300.19
2019-03-12T11:55:57.578Z,101290.68
2019-03-12T11:58:28.129Z,101298.15
2019-03-12T12:01:03.090Z,101281.95
2019-03-12T12:03:33.606Z,101283.56
2019-03-12T12:06:04.301Z,101286.33
2019-03-12T12:08:34.750Z,101279.62
2019-03-12T12:11:12.559Z,101278.28
2019-03-12T12:13:42.999Z,101277.33
2019-03-12T12:16:13.289Z,101275.84
2019-03-12T12:18:43.749Z,101270.19
2019-03-12T12:21:15.541Z,101265.27
2019-03-12T12:23:45.986Z,101264.80
2019-03-12T12:26:16.360Z,101263.77
2019-03-12T12:28:46.850Z,101262.33
2019-03-12T12:31:17.269Z,101260.59
2019-03-12T12:33:47.726Z,101254.63
2019-03-12T12:36:18.013Z,101253.63
2019-03-12T12:38:48.395Z,101251.20
2019-03-12T12:41:19.177Z,101249.61
2019-03-12T12:43:49.523Z,101246.44
2019-03-12T12:46:19.809Z,101245.59
2019-03-12T12:48:53.176Z,101241.91
2019-03-12T12:51:22.190Z,101246.21
2019-03-12T12:53:52.632Z,101238.11
2019-03-12T12:56:22.924Z,101229.90
2019-03-12T12:58:53.274Z,101224.01
2019-03-12T13:01:23.559Z,101227.94
2019-03-12T13:03:53.918Z,101218.73
2019-03-12T13:06:24.363Z,101216.14
2019-03-12T13:08:54.682Z,101205.63
2019-03-12T13:11:25.054Z,101199.75
2019-03-12T13:13:55.344Z,101191.11
2019-03-12T13:16:25.963Z,101185.91
2019-03-12T13:18:57.287Z,101191.84
2019-03-12T13:21:27.571Z,101184.95
2019-03-12T13:23:57.876Z,101168.40
2019-03-12T13:26:28.247Z,101169.88
2019-03-12T13:28:58.614Z,101176.67
2019-03-12T13:31:29.105Z,101173.44
2019-03-12T13:33:59.554Z,101168.47
2019-03-12T13:36:29.919Z,101164.23
2019-03-12T13:39:00.221Z,101172.34
2019-03-12T13:41:32.216Z,101174.48
2019-03-12T13:44:02.714Z,101172.05
2019-03-12T13:46:33.046Z,101167.88
2019-03-12T13:49:03.607Z,101173.18
2019-03-12T13:51:33.954Z,101168.89
2019-03-12T13:54:04.284Z,101163.40
2019-03-12T13:56:34.639Z,101165.37
2019-03-12T13:59:05.003Z,101165.42
2019-03-12T14:01:35.573Z,101162.92
2019-03-12T14:04:10.698Z,101161.81
2019-03-12T14:06:38.016Z,101157.21
2019-03-12T14:09:08.471Z,101155.81
2019-03-12T14:11:41.833Z,101150.30
2019-03-12T14:14:12.183Z,101144.12
2019-03-12T14:16:42.543Z,101146.70
2019-03-12T14:19:12.898Z,101144.22
2019-03-12T14:21:43.233Z,101145.08
2019-03-12T14:24:13.587Z,101135.66
2019-03-12T14:26:43.962Z,101129.69
2019-03-12T14:29:14.298Z,101120.98
2019-03-12T14:31:44.626Z,101114.42
2019-03-12T14:34:15.771Z,101110.64
2019-03-12T14:36:46.208Z,101105.56
2019-03-12T14:39:16.817Z,101108.48
2019-03-12T14:41:47.192Z,101103.44
2019-03-12T14:44:17.543Z,101099.70
2019-03-12T14:46:47.955Z,101095.87
2019-03-12T14:49:18.387Z,101086.89
2019-03-12T14:51:58.315Z,101088.50
2019-03-12T14:54:31.115Z,101077.94
2019-03-12T14:57:03.947Z,101078.56
2019-03-12T14:59:34.506Z,101072.38
2019-03-12T15:02:05.848Z,101065.55
2019-03-12T15:04:36.235Z,101062.53
2019-03-12T15:07:06.602Z,101066.72
2019-03-12T15:09:36.973Z,101058.19
2019-03-12T15:12:07.341Z,101052.55
2019-03-12T15:14:37.944Z,101042.64
2019-03-12T15:17:08.300Z,101037.56
2019-03-12T15:19:38.675Z,101030.75
2019-03-12T15:22:09.125Z,101030.91
2019-03-12T15:24:40.460Z,101030.75
2019-03-12T15:27:10.825Z,101034.18
2019-03-12T15:29:42.649Z,101017.67
2019-03-12T15:32:13.268Z,101015.00
2019-03-12T15:34:43.631Z,101012.98
2019-03-12T15:37:13.972Z,101010.39
2019-03-12T15:39:44.346Z,101007.28
2019-03-12T15:42:15.355Z,100996.59
2019-03-12T15:44:45.999Z,100993.17
2019-03-12T15:47:16.364Z,100981.30
2019-03-12T15:49:46.656Z,100988.58
2019-03-12T15:52:17.036Z,100978.63
2019-03-12T15:54:47.377Z,100976.16
2019-03-12T15:57:17.732Z,100972.99
2019-03-12T15:59:48.404Z,100966.61
2019-03-12T16:02:18.711Z,100954.52
2019-03-12T16:04:49.104Z,100951.70
2019-03-12T16:07:19.475Z,100949.05
2019-03-12T16:09:49.843Z,100941.80
2019-03-12T16:12:20.177Z,100937.02
2019-03-12T16:14:50.560Z,100934.20
2019-03-12T16:17:20.842Z,100930.17
2019-03-12T16:19:51.262Z,100926.38
2019-03-12T16:22:21.557Z,100923.27
2019-03-12T16:24:51.922Z,100916.76
2019-03-12T16:27:22.544Z,100913.44
2019-03-12T16:29:53.804Z,100913.47
2019-03-12T16:32:26.544Z,100913.28
2019-03-12T16:34:56.905Z,100908.58
2019-03-12T16:37:27.339Z,100905.97
2019-03-12T16:39:57.715Z,100910.30
2019-03-12T16:42:34.925Z,100906.66
2019-03-12T16:45:00.169Z,100904.27
2019-03-12T16:47:32.134Z,100899.28
2019-03-12T16:50:02.541Z,100900.73
2019-03-12T16:52:32.903Z,100902.06
2019-03-12T16:55:03.403Z,100902.17
2019-03-12T16:57:33.794Z,100893.80
2019-03-12T17:00:11.403Z,100898.04
2019-03-12T17:02:42.927Z,100896.52
2019-03-12T17:05:13.524Z,100892.23
2019-03-12T17:07:44.796Z,100890.80
2019-03-12T17:10:21.733Z,100890.08
2019-03-12T17:12:52.095Z,100886.95
2019-03-12T17:15:27.439Z,100883.91
2019-03-12T17:17:57.824Z,100877.22
2019-03-12T17:20:28.151Z,100877.69
2019-03-12T17:22:58.514Z,100874.17
2019-03-12T17:25:28.831Z,100862.84
2019-03-12T17:27:59.219Z,100866.51
2019-03-12T17:30:29.619Z,100861.48
2019-03-12T17:33:00.015Z,100860.50
2019-03-12T17:35:41.552Z,100864.89
2019-03-12T17:38:12.895Z,100851.86
2019-03-12T17:40:43.319Z,100843.77
2019-03-12T17:43:13.701Z,100847.78
2019-03-12T17:45:44.089Z,100851.80
2019-03-12T17:48:14.435Z,100834.03
2019-03-12T17:50:46.409Z,100840.79
2019-03-12T17:53:16.714Z,100829.22
2019-03-12T17:55:47.087Z,100824.38
2019-03-12T17:58:17.672Z,100825.20
2019-03-12T18:00:48.055Z,100816.59
2019-03-12T18:03:20.012Z,100814.02
2019-03-12T18:05:50.398Z,100806.25
2019-03-12T18:08:20.847Z,100794.75
2019-03-12T18:10:51.262Z,100803.37
2019-03-12T18:13:21.672Z,100800.70
2019-03-12T18:15:52.033Z,100794.20
2019-03-12T18:18:22.395Z,100789.57
2019-03-12T18:20:52.879Z,100781.97
2019-03-12T18:23:24.695Z,100779.63
2019-03-12T18:25:55.356Z,100776.83
2019-03-12T18:28:26.047Z,100776.23
2019-03-12T18:30:56.505Z,100769.27
2019-03-12T18:33:27.010Z,100765.81
2019-03-12T18:35:59.249Z,100760.90
2019-03-12T18:38:30.532Z,100764.57
2019-03-12T18:41:01.169Z,100755.98
2019-03-12T18:43:32.940Z,100752.88
2019-03-12T18:46:03.698Z,100750.91
2019-03-12T18:48:34.288Z,100744.03
2019-03-12T18:51:04.785Z,100738.34
2019-03-12T18:53:35.249Z,100737.08
2019-03-12T18:56:06.168Z,100731.32
2019-03-12T18:58:42.004Z,100727.06
2019-03-12T19:01:15.128Z,100728.37
2019-03-12T19:03:45.800Z,100728.97
2019-03-12T19:06:16.520Z,100729.73
2019-03-12T19:08:48.609Z,100725.78
2019-03-12T19:11:19.228Z,100725.30
2019-03-12T19:13:49.847Z,100717.02
2019-03-12T19:16:20.824Z,100721.17
2019-03-12T19:18:52.510Z,100712.18
2019-03-12T19:21:23.691Z,100708.91
2019-03-12T19:23:55.776Z,100708.61
2019-03-12T19:26:26.563Z,100700.86
2019-03-12T19:28:56.958Z,100696.26
2019-03-12T19:31:30.559Z,100687.16
2019-03-12T19:34:03.439Z,100677.77
2019-03-12T19:36:34.079Z,100672.00
2019-03-12T19:39:07.025Z,100661.48
2019-03-12T19:41:38.318Z,100668.01
2019-03-12T19:44:11.206Z,100653.91
2019-03-12T19:46:43.150Z,100647.95
2019-03-12T19:49:14.254Z,100642.36
2019-03-12T19:51:50.312Z,100634.05
2019-03-12T19:54:25.079Z,100626.40
2019-03-12T19:56:55.652Z,100622.41
2019-03-12T19:59:26.079Z,100620.16
2019-03-12T20:01:56.503Z,100610.79
2019-03-12T20:04:27.889Z,100605.94
2019-03-12T20:06:58.449Z,100597.72
2019-03-12T20:09:35.078Z,100593.67
2019-03-12T20:12:20.564Z,100586.81
2019-03-12T20:15:16.570Z,100577.27
2019-03-12T20:18:19.058Z,100575.48
2019-03-12T20:21:18.223Z,100570.07
2019-03-12T20:24:13.249Z,100567.19
2019-03-12T20:27:03.557Z,100560.94
2019-03-12T20:30:03.061Z,100552.11
2019-03-12T20:33:02.986Z,100547.78
2019-03-12T20:35:56.953Z,100534.67
2019-03-12T20:38:48.738Z,100528.88
2019-03-12T20:41:28.530Z,100521.34
2019-03-12T20:44:14.468Z,100514.25
2019-03-12T20:47:03.181Z,100507.66
2019-03-12T20:50:10.356Z,100495.63
2019-03-12T20:52:55.604Z,100498.11
2019-03-12T20:55:42.032Z,100486.41
2019-03-12T20:58:46.659Z,100482.93
2019-03-12T21:01:53.315Z,100473.17
2019-03-12T21:05:00.439Z,100471.56
2019-03-12T21:08:07.079Z,100456.41
2019-03-12T21:11:00.133Z,100444.16
2019-03-12T21:13:48.254Z,100440.04
2019-03-12T21:16:55.399Z,100432.50
2019-03-12T21:19:29.025Z,100424.44
2019-03-12T21:22:08.500Z,100424.17
2019-03-12T21:25:18.764Z,100417.59
2019-03-12T21:28:04.482Z,100411.70
2019-03-12T21:30:35.165Z,100405.33
2019-03-12T21:33:15.274Z,100395.50
2019-03-12T21:35:41.204Z,100387.77
2019-03-12T21:38:13.202Z,100379.58
2019-03-12T21:40:45.087Z,100365.48
2019-03-12T21:43:16.524Z,100361.88
2019-03-12T21:45:47.165Z,100357.52
2019-03-12T21:48:17.463Z,100347.66
2019-03-12T21:50:47.914Z,100341.78
2019-03-12T21:53:18.286Z,100316.86
2019-03-12T21:55:48.778Z,100316.63
2019-03-12T21:58:19.171Z,100308.37
2019-03-12T22:00:49.550Z,100307.31
2019-03-12T22:03:19.948Z,100290.14
2019-03-12T22:05:50.346Z,100290.89
2019-03-12T22:08:20.615Z,100276.47
2019-03-12T22:10:50.994Z,100270.08
2019-03-12T22:13:21.350Z,100264.95
2019-03-12T22:15:52.773Z,100256.31
2019-03-12T22:18:23.111Z,100251.49
2019-03-12T22:20:53.467Z,100246.83
2019-03-12T22:23:25.427Z,100233.98
2019-03-12T22:25:56.142Z,100238.02
2019-03-12T22:28:26.618Z,100229.99
2019-03-12T22:30:56.982Z,100223.00
2019-03-12T22:33:27.338Z,100217.89
2019-03-12T22:35:57.703Z,100211.26
2019-03-12T22:38:28.006Z,100195.84
2019-03-12T22:40:58.444Z,100184.55
2019-03-12T22:43:28.730Z,100187.06
2019-03-12T22:45:59.054Z,100184.46
2019-03-12T22:48:29.536Z,100176.54
2019-03-12T22:51:00.792Z,100174.61
2019-03-12T22:53:32.283Z,100168.59
2019-03-12T22:56:02.625Z,100166.09
2019-03-12T22:58:32.931Z,100151.35
2019-03-12T23:01:21.199Z,100147.22
2019-03-12T23:04:09.525Z,100143.33
2019-03-12T23:06:57.925Z,100136.59
2019-03-12T23:09:42.788Z,100136.56
2019-03-12T23:12:16.964Z,100128.00
2019-03-12T23:14:48.459Z,100129.36
2019-03-12T23:17:20.347Z,100132.70
2019-03-12T23:19:50.719Z,100119.98
2019-03-12T23:22:21.099Z,100116.84
2019-03-12T23:24:52.559Z,100108.75
2019-03-12T23:27:22.872Z,100102.15
2019-03-12T23:29:53.199Z,100096.11
2019-03-12T23:32:23.517Z,100094.64
2019-03-12T23:34:53.910Z,100087.65
2019-03-12T23:37:25.361Z,100075.03
2019-03-12T23:39:55.681Z,100065.56
2019-03-12T23:42:26.349Z,100053.09
2019-03-12T23:44:56.724Z,100064.92
2019-03-12T23:47:27.187Z,100053.52
2019-03-12T23:49:57.575Z,100047.59
2019-03-12T23:52:27.957Z,100044.03
2019-03-12T23:54:58.348Z,100042.21
2019-03-12T23:57:28.730Z,100036.59
2019-03-12T23:59:59.126Z,100034.97
